Piarco FIR Weather

TAPA 232300Z 08007KT 9999 SCT018 27/23 Q1012 NOSIG

TBPB 232300Z 10012KT 9999 SCT018 28/23 Q1011 NOSIG

TDPD 232300Z 31002KT 9999 SCT019 25/24 Q1012

TFFF 232330Z AUTO 08004KT 060V120 CAVOK 27/24 Q1011 TEMPO 12015G25KT 2500 SHRA BKN018TCU

TFFR 232330Z AUTO 09004KT 9999 NCD 27/23 Q1012 NOSIG

TGPY 232300Z 10012KT 9999 VCTS FEW015CB 29/24 Q1010 NOSIG CB-S LT-S

TKPK 232300Z 09007KT 9999 VCTS FEW014CB SCT017 28/24 Q1013

TKPN 232300Z 09007KT 9999 SCT020TCU ////// Q1012

TLPC 232300Z VRB02KT 9999 FEW021 29/24 Q1011 NOSIG

TLPL 232300Z 09013KT 9999 BKN024 28/25 Q1011 TEMPO SHRA

TTCP 232300Z 11007KT 9999 FEW017 28/23 Q1010 NOSIG

TTPP 232300Z 11005KT 9999 FEW018 27/24 Q1010 NOSIG

TVSV 121600Z 08005KT 040V120 9999 SCT020 28/20 Q1017 NOSIG